sensor_id;sensor_type;location;lat;lon;timestamp;pressure;altitude;pressure_sealevel;temperature;humidity
48527;BME280;34317;51.660;5.824;2023-01-08T00:01:16;100288.94;;;13.97;58.00
48527;BME280;34317;51.660;5.824;2023-01-08T00:03:44;100296.09;;;13.97;58.02
48527;BME280;34317;51.660;5.824;2023-01-08T00:06:13;100296.09;;;13.97;57.98
48527;BME280;34317;51.660;5.824;2023-01-08T00:08:41;100292.69;;;13.95;57.91
48527;BME280;34317;51.660;5.824;2023-01-08T00:11:08;100298.00;;;13.95;57.85
48527;BME280;34317;51.660;5.824;2023-01-08T00:13:36;100298.19;;;13.92;57.84
48527;BME280;34317;51.660;5.824;2023-01-08T00:16:05;100291.19;;;13.91;57.99
48527;BME280;34317;51.660;5.824;2023-01-08T00:18:32;100301.84;;;13.91;57.93
48527;BME280;34317;51.660;5.824;2023-01-08T00:21:00;100303.75;;;13.89;57.95
48527;BME280;34317;51.660;5.824;2023-01-08T00:23:27;100291.38;;;13.88;57.88
48527;BME280;34317;51.660;5.824;2023-01-08T00:25:54;100289.69;;;13.87;57.95
48527;BME280;34317;51.660;5.824;2023-01-08T00:28:22;100287.13;;;13.85;57.89
48527;BME280;34317;51.660;5.824;2023-01-08T00:30:49;100275.63;;;13.85;57.82
48527;BME280;34317;51.660;5.824;2023-01-08T00:33:16;100279.25;;;13.83;57.80
48527;BME280;34317;51.660;5.824;2023-01-08T00:35:43;100282.00;;;13.82;57.86
48527;BME280;34317;51.660;5.824;2023-01-08T00:38:11;100285.63;;;13.81;58.04
48527;BME280;34317;51.660;5.824;2023-01-08T00:40:38;100268.78;;;13.80;57.80
48527;BME280;34317;51.660;5.824;2023-01-08T00:43:06;100262.63;;;13.80;58.03
48527;BME280;34317;51.660;5.824;2023-01-08T00:45:33;100269.75;;;13.79;58.08
48527;BME280;34317;51.660;5.824;2023-01-08T00:48:00;100268.78;;;13.80;57.96
48527;BME280;34317;51.660;5.824;2023-01-08T00:50:27;100258.16;;;13.80;58.02
48527;BME280;34317;51.660;5.824;2023-01-08T00:52:54;100259.88;;;13.81;58.06
48527;BME280;34317;51.660;5.824;2023-01-08T00:55:22;100265.19;;;13.81;58.03
48527;BME280;34317;51.660;5.824;2023-01-08T00:57:49;100259.88;;;13.81;58.10
48527;BME280;34317;51.660;5.824;2023-01-08T01:00:16;100257.94;;;13.83;58.11
48527;BME280;34317;51.660;5.824;2023-01-08T01:02:44;100254.34;;;13.85;58.00
48527;BME280;34317;51.660;5.824;2023-01-08T01:05:12;100248.16;;;13.84;57.98
48527;BME280;34317;51.660;5.824;2023-01-08T01:07:42;100248.03;;;13.86;57.95
48527;BME280;34317;51.660;5.824;2023-01-08T01:10:11;100250.72;;;13.86;57.98
48527;BME280;34317;51.660;5.824;2023-01-08T01:12:38;100245.38;;;13.86;57.99
48527;BME280;34317;51.660;5.824;2023-01-08T01:15:08;100234.75;;;13.86;58.11
48527;BME280;34317;51.660;5.824;2023-01-08T01:17:40;100234.75;;;13.86;57.91
48527;BME280;34317;51.660;5.824;2023-01-08T01:20:10;100234.75;;;13.86;57.84
48527;BME280;34317;51.660;5.824;2023-01-08T01:22:37;100231.13;;;13.87;57.95
48527;BME280;34317;51.660;5.824;2023-01-08T01:25:05;100240.06;;;13.86;57.98
48527;BME280;34317;51.660;5.824;2023-01-08T01:27:32;100241.78;;;13.87;57.99
48527;BME280;34317;51.660;5.824;2023-01-08T01:30:00;100225.81;;;13.87;57.96
48527;BME280;34317;51.660;5.824;2023-01-08T01:32:27;100231.97;;;13.87;58.03
48527;BME280;34317;51.660;5.824;2023-01-08T01:34:54;100245.19;;;13.89;58.09
48527;BME280;34317;51.660;5.824;2023-01-08T01:37:21;100239.84;;;13.89;58.01
48527;BME280;34317;51.660;5.824;2023-01-08T01:39:48;100236.22;;;13.90;57.99
48527;BME280;34317;51.660;5.824;2023-01-08T01:42:16;100225.56;;;13.90;57.92
48527;BME280;34317;51.660;5.824;2023-01-08T01:45:10;100220.25;;;13.90;57.88
48527;BME280;34317;51.660;5.824;2023-01-08T01:47:39;100225.56;;;13.90;57.95
48527;BME280;34317;51.660;5.824;2023-01-08T01:50:20;100236.34;;;13.88;57.90
48527;BME280;34317;51.660;5.824;2023-01-08T01:52:55;100239.84;;;13.89;57.84
48527;BME280;34317;51.660;5.824;2023-01-08T01:55:25;100232.81;;;13.88;58.00
48527;BME280;34317;51.660;5.824;2023-01-08T01:58:07;100236.44;;;13.87;57.89
48527;BME280;34317;51.660;5.824;2023-01-08T02:00:37;100232.81;;;13.88;57.98
48527;BME280;34317;51.660;5.824;2023-01-08T02:03:04;100238.88;;;13.90;58.00
48527;BME280;34317;51.660;5.824;2023-01-08T02:05:45;100237.09;;;13.90;58.08
48527;BME280;34317;51.660;5.824;2023-01-08T02:08:24;100239.75;;;13.90;57.96
48527;BME280;34317;51.660;5.824;2023-01-08T02:11:16;100258.25;;;13.92;58.01
48527;BME280;34317;51.660;5.824;2023-01-08T02:13:54;100252.84;;;13.93;58.08
48527;BME280;34317;51.660;5.824;2023-01-08T02:16:54;100258.16;;;13.93;58.18
48527;BME280;34317;51.660;5.824;2023-01-08T02:19:36;100246.88;;;13.90;57.94
48527;BME280;34317;51.660;5.824;2023-01-08T02:22:43;100261.59;;;13.82;57.96
48527;BME280;34317;51.660;5.824;2023-01-08T02:25:21;100257.81;;;13.72;57.44
48527;BME280;34317;51.660;5.824;2023-01-08T02:27:54;100247.25;;;13.58;57.48
48527;BME280;34317;51.660;5.824;2023-01-08T02:30:23;100246.38;;;13.44;57.44
48527;BME280;34317;51.660;5.824;2023-01-08T02:32:50;100236.56;;;13.32;57.57
48527;BME280;34317;51.660;5.824;2023-01-08T02:35:17;100240.72;;;13.22;57.58
48527;BME280;34317;51.660;5.824;2023-01-08T02:37:44;100235.16;;;13.12;57.66
48527;BME280;34317;51.660;5.824;2023-01-08T02:40:20;100227.69;;;13.04;57.62
48527;BME280;34317;51.660;5.824;2023-01-08T02:42:55;100228.28;;;12.95;57.75
48527;BME280;34317;51.660;5.824;2023-01-08T02:48:00;100209.75;;;12.81;57.94
48527;BME280;34317;51.660;5.824;2023-01-08T02:53:14;100205.22;;;12.69;58.32
48527;BME280;34317;51.660;5.824;2023-01-08T02:55:51;100196.66;;;12.63;58.35
48527;BME280;34317;51.660;5.824;2023-01-08T02:58:20;100192.50;;;12.59;58.52
48527;BME280;34317;51.660;5.824;2023-01-08T03:00:49;100198.97;;;12.55;58.68
48527;BME280;34317;51.660;5.824;2023-01-08T03:03:19;100215.09;;;12.52;58.81
48527;BME280;34317;51.660;5.824;2023-01-08T03:05:51;100211.69;;;12.50;58.99
48527;BME280;34317;51.660;5.824;2023-01-08T03:08:20;100212.94;;;12.44;58.80
48527;BME280;34317;51.660;5.824;2023-01-08T03:11:04;100206.94;;;12.41;58.97
48527;BME280;34317;51.660;5.824;2023-01-08T03:13:54;100205.53;;;12.35;59.11
48527;BME280;34317;51.660;5.824;2023-01-08T03:16:30;100206.69;;;12.31;59.15
48527;BME280;34317;51.660;5.824;2023-01-08T03:19:08;100206.00;;;12.27;59.42
48527;BME280;34317;51.660;5.824;2023-01-08T03:21:39;100207.91;;;12.25;59.39
48527;BME280;34317;51.660;5.824;2023-01-08T03:24:11;100202.59;;;12.25;59.42
48527;BME280;34317;51.660;5.824;2023-01-08T03:26:40;100194.72;;;12.24;59.49
48527;BME280;34317;51.660;5.824;2023-01-08T03:29:13;100197.50;;;12.22;59.59
48527;BME280;34317;51.660;5.824;2023-01-08T03:31:42;100204.50;;;12.23;59.80
48527;BME280;34317;51.660;5.824;2023-01-08T03:34:13;100199.19;;;12.23;59.80
48527;BME280;34317;51.660;5.824;2023-01-08T03:36:45;100197.50;;;12.22;59.92
48527;BME280;34317;51.660;5.824;2023-01-08T03:39:27;100188.56;;;12.23;59.84
48527;BME280;34317;51.660;5.824;2023-01-08T03:41:59;100204.50;;;12.23;59.86
48527;BME280;34317;51.660;5.824;2023-01-08T03:44:28;100209.81;;;12.23;59.98
48527;BME280;34317;51.660;5.824;2023-01-08T03:46:56;100201.94;;;12.22;59.89
48527;BME280;34317;51.660;5.824;2023-01-08T03:49:25;100190.47;;;12.21;60.08
48527;BME280;34317;51.660;5.824;2023-01-08T03:51:54;100200.25;;;12.21;60.03
48527;BME280;34317;51.660;5.824;2023-01-08T03:54:29;100188.75;;;12.20;60.06
48527;BME280;34317;51.660;5.824;2023-01-08T03:56:57;100183.66;;;12.17;59.77
48527;BME280;34317;51.660;5.824;2023-01-08T03:59:24;100179.28;;;12.16;59.94
48527;BME280;34317;51.660;5.824;2023-01-08T04:01:51;100171.31;;;12.16;59.99
48527;BME280;34317;51.660;5.824;2023-01-08T04:04:18;100180.25;;;12.15;60.15
48527;BME280;34317;51.660;5.824;2023-01-08T04:06:45;100173.22;;;12.14;60.14
48527;BME280;34317;51.660;5.824;2023-01-08T04:09:12;100172.38;;;12.14;60.24
48527;BME280;34317;51.660;5.824;2023-01-08T04:11:40;100166.22;;;12.13;60.28
48527;BME280;34317;51.660;5.824;2023-01-08T04:14:07;100170.66;;;12.13;60.34
48527;BME280;34317;51.660;5.824;2023-01-08T04:16:34;100168.97;;;12.12;60.51
48527;BME280;34317;51.660;5.824;2023-01-08T04:19:01;100166.41;;;12.10;60.33
48527;BME280;34317;51.660;5.824;2023-01-08T04:21:28;100166.41;;;12.10;60.43
48527;BME280;34317;51.660;5.824;2023-01-08T04:23:55;100157.50;;;12.11;60.54
48527;BME280;34317;51.660;5.824;2023-01-08T04:26:22;100159.19;;;12.12;60.56
48527;BME280;34317;51.660;5.824;2023-01-08T04:28:49;100158.25;;;12.13;60.45
48527;BME280;34317;51.660;5.824;2023-01-08T04:31:16;100148.41;;;12.15;60.55
48527;BME280;34317;51.660;5.824;2023-01-08T04:33:44;100148.41;;;12.15;60.51
48527;BME280;34317;51.660;5.824;2023-01-08T04:36:11;100148.41;;;12.15;60.44
48527;BME280;34317;51.660;5.824;2023-01-08T04:38:38;100143.09;;;12.15;60.61
48527;BME280;34317;51.660;5.824;2023-01-08T04:41:05;100143.09;;;12.15;60.68
48527;BME280;34317;51.660;5.824;2023-01-08T04:43:32;100134.16;;;12.16;60.60
48527;BME280;34317;51.660;5.824;2023-01-08T04:46:01;100119.09;;;12.17;60.53
48527;BME280;34317;51.660;5.824;2023-01-08T04:48:29;100132.25;;;12.18;60.51
48527;BME280;34317;51.660;5.824;2023-01-08T04:50:57;100125.25;;;12.17;60.65
48527;BME280;34317;51.660;5.824;2023-01-08T04:53:26;100126.09;;;12.18;60.45
48527;BME280;34317;51.660;5.824;2023-01-08T04:55:53;100117.28;;;12.17;60.50
48527;BME280;34317;51.660;5.824;2023-01-08T04:58:21;100119.94;;;12.17;60.68
48527;BME280;34317;51.660;5.824;2023-01-08T05:00:48;100107.59;;;12.16;60.51
48527;BME280;34317;51.660;5.824;2023-01-08T05:03:15;100103.28;;;12.15;60.66
48527;BME280;34317;51.660;5.824;2023-01-08T05:05:42;100104.19;;;12.14;60.66
48527;BME280;34317;51.660;5.824;2023-01-08T05:08:09;100109.50;;;12.14;60.82
48527;BME280;34317;51.660;5.824;2023-01-08T05:10:37;100120.13;;;12.14;60.73
48527;BME280;34317;51.660;5.824;2023-01-08T05:13:04;100120.13;;;12.14;60.59
48527;BME280;34317;51.660;5.824;2023-01-08T05:15:31;100127.16;;;12.15;60.81
48527;BME280;34317;51.660;5.824;2023-01-08T05:18:02;100111.22;;;12.15;60.40
48527;BME280;34317;51.660;5.824;2023-01-08T05:20:31;100114.63;;;12.17;60.29
48527;BME280;34317;51.660;5.824;2023-01-08T05:22:58;100120.69;;;12.19;60.24
48527;BME280;34317;51.660;5.824;2023-01-08T05:25:26;100112.75;;;12.19;60.11
48527;BME280;34317;51.660;5.824;2023-01-08T05:27:53;100125.03;;;12.20;60.08
48527;BME280;34317;51.660;5.824;2023-01-08T05:30:20;100128.47;;;12.22;60.17
48527;BME280;34317;51.660;5.824;2023-01-08T05:32:47;100129.31;;;12.23;60.00
48527;BME280;34317;51.660;5.824;2023-01-08T05:35:14;100117.88;;;12.22;60.17
48527;BME280;34317;51.660;5.824;2023-01-08T05:37:41;100117.00;;;12.22;60.18
48527;BME280;34317;51.660;5.824;2023-01-08T05:40:08;100112.56;;;12.22;60.33
48527;BME280;34317;51.660;5.824;2023-01-08T05:42:36;100116.91;;;12.23;60.29
48527;BME280;34317;51.660;5.824;2023-01-08T05:45:04;100112.56;;;12.22;60.37
48527;BME280;34317;51.660;5.824;2023-01-08T05:47:32;100105.53;;;12.21;60.38
48527;BME280;34317;51.660;5.824;2023-01-08T05:50:00;100107.25;;;12.22;60.46
48527;BME280;34317;51.660;5.824;2023-01-08T05:52:28;100107.25;;;12.22;60.53
48527;BME280;34317;51.660;5.824;2023-01-08T05:54:55;100108.94;;;12.23;60.46
48527;BME280;34317;51.660;5.824;2023-01-08T05:57:22;100103.63;;;12.23;60.29
48527;BME280;34317;51.660;5.824;2023-01-08T05:59:49;100102.56;;;12.26;60.38
48527;BME280;34317;51.660;5.824;2023-01-08T06:02:16;100098.97;;;12.27;60.34
48527;BME280;34317;51.660;5.824;2023-01-08T06:04:43;100104.19;;;12.29;60.19
48527;BME280;34317;51.660;5.824;2023-01-08T06:07:10;100089.94;;;12.30;60.25
48527;BME280;34317;51.660;5.824;2023-01-08T06:09:37;100088.16;;;12.30;60.21
48527;BME280;34317;51.660;5.824;2023-01-08T06:12:05;100093.47;;;12.30;60.02
48527;BME280;34317;51.660;5.824;2023-01-08T06:14:32;100099.63;;;12.31;59.93
48527;BME280;34317;51.660;5.824;2023-01-08T06:16:59;100108.34;;;12.33;59.96
48527;BME280;34317;51.660;5.824;2023-01-08T06:19:26;100111.09;;;12.31;59.84
48527;BME280;34317;51.660;5.824;2023-01-08T06:21:53;100118.97;;;12.33;59.70
48527;BME280;34317;51.660;5.824;2023-01-08T06:24:20;100126.19;;;12.31;59.66
48527;BME280;34317;51.660;5.824;2023-01-08T06:26:47;100126.38;;;12.27;59.65
48527;BME280;34317;51.660;5.824;2023-01-08T06:29:14;100136.22;;;12.25;59.74
48527;BME280;34317;51.660;5.824;2023-01-08T06:31:41;100149.72;;;12.22;59.48
48527;BME280;34317;51.660;5.824;2023-01-08T06:34:08;100144.59;;;12.19;59.30
48527;BME280;34317;51.660;5.824;2023-01-08T06:36:35;100144.78;;;12.16;59.16
48527;BME280;34317;51.660;5.824;2023-01-08T06:39:07;100138.94;;;12.11;59.04
48527;BME280;34317;51.660;5.824;2023-01-08T06:41:34;100136.44;;;12.08;59.18
48527;BME280;34317;51.660;5.824;2023-01-08T06:44:01;100149.16;;;12.03;59.05
48527;BME280;34317;51.660;5.824;2023-01-08T06:46:28;100152.09;;;11.98;58.92
48527;BME280;34317;51.660;5.824;2023-01-08T06:48:56;100156.75;;;11.95;58.87
48527;BME280;34317;51.660;5.824;2023-01-08T06:51:23;100162.41;;;11.88;58.73
48527;BME280;34317;51.660;5.824;2023-01-08T06:53:50;100163.50;;;11.84;58.71
48527;BME280;34317;51.660;5.824;2023-01-08T06:56:17;100161.25;;;11.78;58.76
48527;BME280;34317;51.660;5.824;2023-01-08T06:58:44;100158.00;;;11.73;58.53
48527;BME280;34317;51.660;5.824;2023-01-08T07:01:13;100164.53;;;11.67;58.63
48527;BME280;34317;51.660;5.824;2023-01-08T07:03:41;100156.88;;;11.63;58.47
48527;BME280;34317;51.660;5.824;2023-01-08T07:06:15;100158.94;;;11.58;58.13
48527;BME280;34317;51.660;5.824;2023-01-08T07:08:43;100167.19;;;11.53;58.09
48527;BME280;34317;51.660;5.824;2023-01-08T07:11:10;100161.22;;;11.49;58.23
48527;BME280;34317;51.660;5.824;2023-01-08T07:13:38;100170.31;;;11.45;58.22
48527;BME280;34317;51.660;5.824;2023-01-08T07:16:09;100163.44;;;11.41;58.17
48527;BME280;34317;51.660;5.824;2023-01-08T07:18:37;100165.53;;;11.36;58.38
48527;BME280;34317;51.660;5.824;2023-01-08T07:21:05;100153.41;;;11.32;58.30
48527;BME280;34317;51.660;5.824;2023-01-08T07:23:33;100162.31;;;11.31;58.08
48527;BME280;34317;51.660;5.824;2023-01-08T07:26:01;100154.63;;;11.26;58.27
48527;BME280;34317;51.660;5.824;2023-01-08T07:28:30;100158.38;;;11.22;58.44
48527;BME280;34317;51.660;5.824;2023-01-08T07:31:01;100164.72;;;11.20;58.18
48527;BME280;34317;51.660;5.824;2023-01-08T07:33:28;100158.66;;;11.18;58.40
48527;BME280;34317;51.660;5.824;2023-01-08T07:35:56;100156.19;;;11.15;58.40
48527;BME280;34317;51.660;5.824;2023-01-08T07:38:23;100156.38;;;11.12;58.28
48527;BME280;34317;51.660;5.824;2023-01-08T07:40:50;100159.22;;;11.08;58.41
48527;BME280;34317;51.660;5.824;2023-01-08T07:43:18;100157.59;;;11.06;58.50
48527;BME280;34317;51.660;5.824;2023-01-08T07:45:45;100162.22;;;11.02;58.32
48527;BME280;34317;51.660;5.824;2023-01-08T07:48:12;100157.94;;;11.00;58.45
48527;BME280;34317;51.660;5.824;2023-01-08T07:50:43;100154.53;;;10.98;58.20
48527;BME280;34317;51.660;5.824;2023-01-08T07:53:12;100157.25;;;10.96;58.43
48527;BME280;34317;51.660;5.824;2023-01-08T07:55:39;100164.44;;;10.94;58.25
48527;BME280;34317;51.660;5.824;2023-01-08T07:58:10;100164.63;;;10.91;58.37
48527;BME280;34317;51.660;5.824;2023-01-08T08:00:37;100166.53;;;10.89;58.46
48527;BME280;34317;51.660;5.824;2023-01-08T08:03:06;100166.53;;;10.89;58.35
48527;BME280;34317;51.660;5.824;2023-01-08T08:05:33;100168.41;;;10.87;58.43
48527;BME280;34317;51.660;5.824;2023-01-08T08:08:00;100163.28;;;10.84;58.22
48527;BME280;34317;51.660;5.824;2023-01-08T08:10:28;100157.28;;;10.80;58.39
48527;BME280;34317;51.660;5.824;2023-01-08T08:12:55;100156.44;;;10.80;58.46
48527;BME280;34317;51.660;5.824;2023-01-08T08:15:22;100153.03;;;10.78;58.57
48527;BME280;34317;51.660;5.824;2023-01-08T08:17:49;100153.97;;;10.77;58.32
48527;BME280;34317;51.660;5.824;2023-01-08T08:20:16;100149.63;;;10.76;58.54
48527;BME280;34317;51.660;5.824;2023-01-08T08:22:43;100153.19;;;10.75;58.41
48527;BME280;34317;51.660;5.824;2023-01-08T08:25:10;100144.50;;;10.73;58.62
48527;BME280;34317;51.660;5.824;2023-01-08T08:27:38;100148.06;;;10.71;58.47
48527;BME280;34317;51.660;5.824;2023-01-08T08:30:05;100124.22;;;10.71;58.65
48527;BME280;34317;51.660;5.824;2023-01-08T08:32:33;100132.16;;;10.71;58.62
48527;BME280;34317;51.660;5.824;2023-01-08T08:35:00;100133.91;;;10.73;58.49
48527;BME280;34317;51.660;5.824;2023-01-08T08:37:28;100120.66;;;10.73;58.62
48527;BME280;34317;51.660;5.824;2023-01-08T08:39:55;100126.72;;;10.75;58.69
48527;BME280;34317;51.660;5.824;2023-01-08T08:42:22;100119.53;;;10.77;58.84
48527;BME280;34317;51.660;5.824;2023-01-08T08:44:49;100118.50;;;10.79;58.92
48527;BME280;34317;51.660;5.824;2023-01-08T08:47:16;100113.88;;;10.83;58.75
48527;BME280;34317;51.660;5.824;2023-01-08T08:49:43;100119.00;;;10.86;59.05
48527;BME280;34317;51.660;5.824;2023-01-08T08:52:10;100125.81;;;10.90;58.88
48527;BME280;34317;51.660;5.824;2023-01-08T08:54:37;100132.66;;;10.94;58.81
48527;BME280;34317;51.660;5.824;2023-01-08T08:57:08;100120.94;;;10.98;59.10
48527;BME280;34317;51.660;5.824;2023-01-08T08:59:35;100111.88;;;11.02;59.29
48527;BME280;34317;51.660;5.824;2023-01-08T09:02:03;100112.56;;;11.06;58.91
48527;BME280;34317;51.660;5.824;2023-01-08T09:04:32;100114.16;;;11.08;58.96
48527;BME280;34317;51.660;5.824;2023-01-08T09:06:59;100097.13;;;11.13;58.92
48527;BME280;34317;51.660;5.824;2023-01-08T09:09:26;100099.59;;;11.16;59.37
48527;BME280;34317;51.660;5.824;2023-01-08T09:11:54;100092.41;;;11.18;58.91
48527;BME280;34317;51.660;5.824;2023-01-08T09:14:22;100094.88;;;11.21;59.00
48527;BME280;34317;51.660;5.824;2023-01-08T09:16:49;100095.66;;;11.23;58.96
48527;BME280;34317;51.660;5.824;2023-01-08T09:19:17;100100.75;;;11.26;59.01
48527;BME280;34317;51.660;5.824;2023-01-08T09:21:44;100107.75;;;11.27;58.68
48527;BME280;34317;51.660;5.824;2023-01-08T09:24:11;100111.19;;;11.29;58.72
48527;BME280;34317;51.660;5.824;2023-01-08T09:26:38;100112.88;;;11.30;58.73
48527;BME280;34317;51.660;5.824;2023-01-08T09:29:05;100114.59;;;11.31;58.97
48527;BME280;34317;51.660;5.824;2023-01-08T09:31:32;100103.97;;;11.31;58.65
48527;BME280;34317;51.660;5.824;2023-01-08T09:34:00;100106.63;;;11.31;58.81
48527;BME280;34317;51.660;5.824;2023-01-08T09:36:27;100104.75;;;11.33;58.79
48527;BME280;34317;51.660;5.824;2023-01-08T09:38:54;100098.50;;;11.34;58.83
48527;BME280;34317;51.660;5.824;2023-01-08T09:41:30;100098.50;;;11.34;59.01
48527;BME280;34317;51.660;5.824;2023-01-08T09:43:58;100101.72;;;11.39;58.96
48527;BME280;34317;51.660;5.824;2023-01-08T09:46:27;100092.81;;;11.40;58.99
48527;BME280;34317;51.660;5.824;2023-01-08T09:48:58;100092.66;;;11.43;58.90
48527;BME280;34317;51.660;5.824;2023-01-08T09:51:32;100099.56;;;11.46;59.00
48527;BME280;34317;51.660;5.824;2023-01-08T09:54:00;100092.28;;;11.49;59.04
48527;BME280;34317;51.660;5.824;2023-01-08T09:56:28;100092.94;;;11.53;59.05
48527;BME280;34317;51.660;5.824;2023-01-08T09:59:00;100083.00;;;11.57;59.13
48527;BME280;34317;51.660;5.824;2023-01-08T10:01:30;100087.16;;;11.61;59.29
48527;BME280;34317;51.660;5.824;2023-01-08T10:04:14;100076.34;;;11.64;59.21
48527;BME280;34317;51.660;5.824;2023-01-08T10:06:50;100084.13;;;11.67;59.22
48527;BME280;34317;51.660;5.824;2023-01-08T10:09:23;100075.03;;;11.71;59.27
48527;BME280;34317;51.660;5.824;2023-01-08T10:11:52;100078.44;;;11.73;58.98
48527;BME280;34317;51.660;5.824;2023-01-08T10:14:27;100076.53;;;11.75;59.09
48527;BME280;34317;51.660;5.824;2023-01-08T10:16:58;100078.06;;;11.79;59.18
48527;BME280;34317;51.660;5.824;2023-01-08T10:19:26;100068.13;;;11.83;59.24
48527;BME280;34317;51.660;5.824;2023-01-08T10:21:55;100058.13;;;11.86;59.29
48527;BME280;34317;51.660;5.824;2023-01-08T10:24:36;100063.28;;;11.90;58.92
48527;BME280;34317;51.660;5.824;2023-01-08T10:27:07;100059.50;;;11.94;59.13
48527;BME280;34317;51.660;5.824;2023-01-08T10:29:34;100057.59;;;11.96;59.12
48527;BME280;34317;51.660;5.824;2023-01-08T10:32:13;100055.69;;;11.98;59.27
48527;BME280;34317;51.660;5.824;2023-01-08T10:40:03;100048.78;;;12.10;59.16
48527;BME280;34317;51.660;5.824;2023-01-08T10:42:35;100041.47;;;12.13;59.31
48527;BME280;34317;51.660;5.824;2023-01-08T10:45:05;100029.69;;;12.17;59.26
48527;BME280;34317;51.660;5.824;2023-01-08T10:47:36;100022.28;;;12.22;59.21
48527;BME280;34317;51.660;5.824;2023-01-08T10:50:05;100027.38;;;12.25;59.31
48527;BME280;34317;51.660;5.824;2023-01-08T10:52:51;100016.56;;;12.29;59.22
48527;BME280;34317;51.660;5.824;2023-01-08T10:55:28;100016.34;;;12.32;59.12
48527;BME280;34317;51.660;5.824;2023-01-08T10:57:58;100010.84;;;12.35;59.13
48527;BME280;34317;51.660;5.824;2023-01-08T11:00:34;100005.34;;;12.38;59.10
48527;BME280;34317;51.660;5.824;2023-01-08T11:03:05;100014.81;;;12.42;59.19
48527;BME280;34317;51.660;5.824;2023-01-08T11:05:34;100002.38;;;12.42;59.18
48527;BME280;34317;51.660;5.824;2023-01-08T11:08:05;99998.66;;;12.45;59.06
48527;BME280;34317;51.660;5.824;2023-01-08T11:10:34;99992.41;;;12.46;59.19
48527;BME280;34317;51.660;5.824;2023-01-08T11:13:04;99987.72;;;12.50;59.19
48527;BME280;34317;51.660;5.824;2023-01-08T11:15:38;99990.81;;;12.56;59.22
48527;BME280;34317;51.660;5.824;2023-01-08T11:18:16;99989.47;;;12.63;59.30
48527;BME280;34317;51.660;5.824;2023-01-08T11:20:45;99985.44;;;12.71;59.16
48527;BME280;34317;51.660;5.824;2023-01-08T11:23:22;99976.09;;;12.78;59.21
48527;BME280;34317;51.660;5.824;2023-01-08T11:25:51;99979.06;;;12.86;59.09
48527;BME280;34317;51.660;5.824;2023-01-08T11:28:27;99976.75;;;12.94;59.13
48527;BME280;34317;51.660;5.824;2023-01-08T11:31:10;99968.88;;;13.05;59.14
48527;BME280;34317;51.660;5.824;2023-01-08T11:33:41;99973.56;;;13.15;58.85
48527;BME280;34317;51.660;5.824;2023-01-08T11:36:34;99964.41;;;13.19;58.66
48527;BME280;34317;51.660;5.824;2023-01-08T11:39:07;99951.63;;;13.24;58.58
48527;BME280;34317;51.660;5.824;2023-01-08T11:42:04;99945.03;;;13.30;58.53
48527;BME280;34317;51.660;5.824;2023-01-08T11:45:00;99952.72;;;13.34;58.52
48527;BME280;34317;51.660;5.824;2023-01-08T11:50:23;99939.50;;;13.46;58.23
48527;BME280;34317;51.660;5.824;2023-01-08T11:53:09;99932.06;;;13.51;57.99
48527;BME280;34317;51.660;5.824;2023-01-08T11:58:56;99920.22;;;13.55;57.70
48527;BME280;34317;51.660;5.824;2023-01-08T12:07:27;99917.13;;;13.61;57.65
48527;BME280;34317;51.660;5.824;2023-01-08T12:10:18;99922.22;;;13.64;57.31
48527;BME280;34317;51.660;5.824;2023-01-08T12:13:22;99916.66;;;13.67;57.38
48527;BME280;34317;51.660;5.824;2023-01-08T12:32:28;99906.81;;;13.80;56.89
48527;BME280;34317;51.660;5.824;2023-01-08T12:35:02;99903.22;;;13.81;56.73
48527;BME280;34317;51.660;5.824;2023-01-08T12:40:12;99894.28;;;13.82;56.40
48527;BME280;34317;51.660;5.824;2023-01-08T12:42:42;99895.97;;;13.83;56.39
48527;BME280;34317;51.660;5.824;2023-01-08T12:47:51;99892.34;;;13.85;56.21
48527;BME280;34317;51.660;5.824;2023-01-08T12:50:33;99901.06;;;13.87;56.06
48527;BME280;34317;51.660;5.824;2023-01-08T12:56:20;99894.38;;;13.81;56.42
48527;BME280;34317;51.660;5.824;2023-01-08T13:04:01;99887.44;;;13.78;56.16
48527;BME280;34317;51.660;5.824;2023-01-08T13:06:30;99881.41;;;13.76;56.20
48527;BME280;34317;51.660;5.824;2023-01-08T13:08:58;99884.06;;;13.76;56.23
48527;BME280;34317;51.660;5.824;2023-01-08T13:11:29;99874.16;;;13.78;56.22
48527;BME280;34317;51.660;5.824;2023-01-08T13:14:04;99867.66;;;13.82;56.01
48527;BME280;34317;51.660;5.824;2023-01-08T13:17:02;99863.81;;;13.87;56.09
48527;BME280;34317;51.660;5.824;2023-01-08T13:19:36;99861.03;;;13.88;56.09
48527;BME280;34317;51.660;5.824;2023-01-08T13:22:22;99863.56;;;13.90;56.07
48527;BME280;34317;51.660;5.824;2023-01-08T13:24:50;99865.03;;;13.94;55.98
48527;BME280;34317;51.660;5.824;2023-01-08T13:29:49;99854.41;;;13.94;55.66
48527;BME280;34317;51.660;5.824;2023-01-08T13:32:26;99850.97;;;13.92;55.48
48527;BME280;34317;51.660;5.824;2023-01-08T13:37:34;99847.59;;;13.90;55.29
48527;BME280;34317;51.660;5.824;2023-01-08T13:40:01;99831.59;;;13.90;55.09
48527;BME280;34317;51.660;5.824;2023-01-08T13:42:32;99828.22;;;13.88;55.15
48527;BME280;34317;51.660;5.824;2023-01-08T13:45:00;99828.09;;;13.89;55.21
48527;BME280;34317;51.660;5.824;2023-01-08T13:47:32;99819.28;;;13.89;55.10
48527;BME280;34317;51.660;5.824;2023-01-08T13:50:04;99826.28;;;13.90;54.99
48527;BME280;34317;51.660;5.824;2023-01-08T13:52:45;99815.41;;;13.93;55.06
48527;BME280;34317;51.660;5.824;2023-01-08T13:55:40;99802.84;;;13.95;54.96
48527;BME280;34317;51.660;5.824;2023-01-08T13:58:14;99809.00;;;13.95;54.81
48527;BME280;34317;51.660;5.824;2023-01-08T14:03:25;99811.81;;;13.94;54.46
48527;BME280;34317;51.660;5.824;2023-01-08T14:06:14;99817.34;;;13.91;54.37
48527;BME280;34317;51.660;5.824;2023-01-08T14:11:22;99804.25;;;13.88;54.43
48527;BME280;34317;51.660;5.824;2023-01-08T14:13:50;99808.84;;;13.86;54.08